createdAt,value
2018-11-03T05:00:14.672Z,91.30
2018-11-03T05:02:42.783Z,91.30
2018-11-03T05:05:10.833Z,91.50
2018-11-03T05:07:38.898Z,91.50
2018-11-03T05:10:07.938Z,91.60
2018-11-03T05:12:36.295Z,91.70
2018-11-03T05:15:04.403Z,91.80
2018-11-03T05:17:32.504Z,91.70
2018-11-03T05:20:00.599Z,91.70
2018-11-03T05:22:28.758Z,91.80
2018-11-03T05:24:56.827Z,91.80
2018-11-03T05:27:24.925Z,91.90
2018-11-03T05:29:53.010Z,91.90
2018-11-03T05:32:21.125Z,91.90
2018-11-03T05:34:49.187Z,92.00
2018-11-03T05:37:17.277Z,92.00
2018-11-03T05:39:45.345Z,91.80
2018-11-03T05:42:13.408Z,91.70
2018-11-03T05:44:41.498Z,91.80
2018-11-03T05:47:09.592Z,91.80
2018-11-03T05:49:37.650Z,91.80
2018-11-03T05:52:05.757Z,91.90
2018-11-03T05:54:33.833Z,92.00
2018-11-03T05:57:01.914Z,91.90
2018-11-03T05:59:30.022Z,91.90
2018-11-03T06:01:58.206Z,91.80
2018-11-03T06:04:26.310Z,91.80
2018-11-03T06:06:54.371Z,91.70
2018-11-03T06:09:22.458Z,91.80
2018-11-03T06:11:50.511Z,91.90
2018-11-03T06:14:18.607Z,91.80
2018-11-03T06:16:46.663Z,91.80
2018-11-03T06:19:14.742Z,91.70
2018-11-03T06:21:42.818Z,91.70
2018-11-03T06:24:10.910Z,91.80
2018-11-03T06:26:39.047Z,91.80
2018-11-03T06:29:07.144Z,91.90
2018-11-03T06:31:35.220Z,92.20
2018-11-03T06:34:03.315Z,92.20
2018-11-03T06:36:31.394Z,92.10
2018-11-03T06:38:59.518Z,92.00
2018-11-03T06:41:27.586Z,92.10
2018-11-03T06:43:55.671Z,92.10
2018-11-03T06:46:23.763Z,92.20
2018-11-03T06:48:51.846Z,92.50
2018-11-03T06:51:19.929Z,92.50
2018-11-03T06:53:48.057Z,92.60
2018-11-03T06:56:16.204Z,92.60
2018-11-03T06:58:44.231Z,92.60
2018-11-03T07:01:12.538Z,92.50
2018-11-03T07:03:40.601Z,92.70
2018-11-03T07:06:09.574Z,92.70
2018-11-03T07:08:57.612Z,92.70
2018-11-03T07:11:30.570Z,92.90
2018-11-03T07:14:04.488Z,92.90
2018-11-03T07:16:32.593Z,93.10
2018-11-03T07:19:00.771Z,93.20
2018-11-03T07:21:28.901Z,93.30
2018-11-03T07:23:57.191Z,93.40
2018-11-03T07:26:25.369Z,93.50
2018-11-03T07:28:53.564Z,93.70
2018-11-03T07:31:21.722Z,93.80
2018-11-03T07:33:49.762Z,93.80
2018-11-03T07:36:17.847Z,94.00
2018-11-03T07:38:45.999Z,93.90
2018-11-03T07:41:14.081Z,93.90
2018-11-03T07:43:42.162Z,93.90
2018-11-03T07:46:10.282Z,94.00
2018-11-03T07:48:38.495Z,94.30
2018-11-03T07:51:06.529Z,94.30
2018-11-03T07:53:34.622Z,94.10
2018-11-03T07:56:02.698Z,94.30
2018-11-03T07:58:30.865Z,94.40
2018-11-03T08:00:58.944Z,94.50
2018-11-03T08:03:27.003Z,94.70
2018-11-03T08:05:55.105Z,94.90
2018-11-03T08:08:23.206Z,95.00
2018-11-03T08:10:51.297Z,95.10
2018-11-03T08:13:19.386Z,95.30
2018-11-03T08:15:47.677Z,96.00
2018-11-03T08:18:15.574Z,96.30
2018-11-03T08:20:43.662Z,96.80
2018-11-03T08:23:11.758Z,97.10
2018-11-03T08:25:39.863Z,97.10
2018-11-03T08:28:07.954Z,96.70
2018-11-03T08:30:36.063Z,96.90
2018-11-03T08:33:04.130Z,95.90
2018-11-03T08:35:32.214Z,96.20
2018-11-03T08:38:00.492Z,96.30
2018-11-03T08:40:28.609Z,95.50
2018-11-03T08:42:56.751Z,94.80
2018-11-03T08:45:24.840Z,94.90
2018-11-03T08:47:52.922Z,94.60
2018-11-03T08:50:21.005Z,94.30
2018-11-03T08:52:49.117Z,93.80
2018-11-03T08:55:17.193Z,93.40
2018-11-03T08:57:45.285Z,92.80
2018-11-03T09:00:14.564Z,92.70
2018-11-03T09:02:42.906Z,92.60
2018-11-03T09:05:11.665Z,92.20
2018-11-03T09:07:40.278Z,92.10
2018-11-03T09:10:12.031Z,92.00
2018-11-03T09:12:40.125Z,92.10
2018-11-03T09:15:09.800Z,91.80
2018-11-03T09:17:38.725Z,91.30
2018-11-03T09:20:07.846Z,90.90
2018-11-03T09:22:36.641Z,91.40
2018-11-03T09:25:05.998Z,91.00
2018-11-03T09:27:34.089Z,90.60
2018-11-03T09:30:02.198Z,90.30
2018-11-03T09:32:30.273Z,90.30
2018-11-03T09:34:58.410Z,90.20
2018-11-03T09:37:26.899Z,88.40
2018-11-03T09:39:55.011Z,89.80
2018-11-03T09:42:23.179Z,87.40
2018-11-03T09:44:51.288Z,87.10
2018-11-03T09:47:19.488Z,86.40
2018-11-03T09:49:47.585Z,86.60
2018-11-03T09:52:15.710Z,86.90
2018-11-03T09:54:43.816Z,87.80
2018-11-03T09:57:11.977Z,86.70
2018-11-03T09:59:40.387Z,88.70
2018-11-03T10:02:08.513Z,89.30
2018-11-03T10:04:36.662Z,90.40
2018-11-03T10:07:04.819Z,85.40
2018-11-03T10:09:32.962Z,86.10
2018-11-03T10:12:01.102Z,86.00
2018-11-03T10:14:29.264Z,86.40
2018-11-03T10:16:57.587Z,86.10
2018-11-03T10:19:25.866Z,85.00
2018-11-03T10:21:55.120Z,83.00
2018-11-03T10:24:23.208Z,85.30
2018-11-03T10:26:51.282Z,83.40
2018-11-03T10:29:19.342Z,83.80
2018-11-03T10:31:47.445Z,83.90
2018-11-03T10:34:15.515Z,84.60
2018-11-03T10:36:43.604Z,83.20
2018-11-03T10:39:13.890Z,85.10
2018-11-03T10:41:42.494Z,80.30
2018-11-03T10:44:10.942Z,82.70
2018-11-03T10:46:39.193Z,79.30
2018-11-03T10:49:07.279Z,79.70
2018-11-03T10:51:35.383Z,77.00
2018-11-03T10:54:03.452Z,78.20
2018-11-03T10:56:31.503Z,79.20
2018-11-03T10:58:59.593Z,79.20
2018-11-03T11:01:33.148Z,78.20
2018-11-03T11:04:06.691Z,79.40
2018-11-03T11:06:40.492Z,79.50
2018-11-03T11:09:13.902Z,81.40
2018-11-03T11:11:47.555Z,81.70
2018-11-03T11:14:16.241Z,81.40
2018-11-03T11:16:44.252Z,78.30
2018-11-03T11:19:12.379Z,78.60
2018-11-03T11:21:40.444Z,77.60
2018-11-03T11:24:08.801Z,78.90
2018-11-03T11:26:36.816Z,77.30
2018-11-03T11:29:04.963Z,75.20
2018-11-03T11:31:38.421Z,74.40
2018-11-03T11:34:06.522Z,72.40
2018-11-03T11:36:34.914Z,74.70
2018-11-03T11:39:03.839Z,67.90
2018-11-03T11:41:32.233Z,67.70
2018-11-03T11:44:00.400Z,70.30
2018-11-03T11:46:31.190Z,69.40
2018-11-03T11:48:59.482Z,72.20
2018-11-03T11:51:27.618Z,61.90
2018-11-03T11:53:55.704Z,65.10
2018-11-03T11:56:23.902Z,63.20
2018-11-03T11:58:52.035Z,57.20
2018-11-03T12:01:20.165Z,55.30
2018-11-03T12:03:48.274Z,55.10
2018-11-03T12:06:16.387Z,54.50
2018-11-03T12:08:44.479Z,53.40
2018-11-03T12:11:12.603Z,49.70
2018-11-03T12:13:40.717Z,48.40
2018-11-03T12:16:08.915Z,52.40
2018-11-03T12:18:36.954Z,56.80
2018-11-03T12:21:05.054Z,46.00
2018-11-03T12:23:33.139Z,45.80
2018-11-03T12:26:01.199Z,49.50
2018-11-03T12:28:29.282Z,49.90
2018-11-03T12:30:57.337Z,45.10
2018-11-03T12:33:25.425Z,51.40
2018-11-03T12:35:53.493Z,48.00
2018-11-03T12:38:21.583Z,44.40
2018-11-03T12:40:49.752Z,38.40
2018-11-03T12:43:17.750Z,41.30
2018-11-03T12:45:45.810Z,43.70
2018-11-03T12:48:13.929Z,42.30
2018-11-03T12:50:42.034Z,38.90
2018-11-03T12:53:10.140Z,40.20
2018-11-03T12:55:38.218Z,39.50
2018-11-03T12:58:06.330Z,43.10
2018-11-03T13:00:34.404Z,45.40
2018-11-03T13:03:02.546Z,46.00
2018-11-03T13:05:30.768Z,47.30
2018-11-03T13:07:58.878Z,48.30
2018-11-03T13:10:26.969Z,48.40
2018-11-03T13:12:55.160Z,50.00
2018-11-03T13:15:23.313Z,49.10
2018-11-03T13:17:51.398Z,51.70
2018-11-03T13:20:19.534Z,51.10
2018-11-03T13:22:47.653Z,49.80
2018-11-03T13:25:15.739Z,51.90
2018-11-03T13:27:43.909Z,51.10
2018-11-03T13:30:13.868Z,50.40
2018-11-03T13:32:41.983Z,52.20
2018-11-03T13:35:11.398Z,51.30
2018-11-03T13:37:39.486Z,52.30
2018-11-03T13:40:08.514Z,51.30
2018-11-03T13:42:36.577Z,51.00
2018-11-03T13:45:05.145Z,52.40
2018-11-03T13:47:33.280Z,50.90
2018-11-03T13:50:01.328Z,52.40
2018-11-03T13:52:29.517Z,53.30
2018-11-03T13:54:57.591Z,53.40
2018-11-03T13:57:25.696Z,52.40
2018-11-03T13:59:53.777Z,52.80
2018-11-03T14:02:21.873Z,52.30
2018-11-03T14:04:49.953Z,54.50
2018-11-03T14:07:18.058Z,53.20
2018-11-03T14:09:46.150Z,53.30
2018-11-03T14:12:14.221Z,53.40
2018-11-03T14:14:42.329Z,52.80
2018-11-03T14:17:10.531Z,53.40
2018-11-03T14:19:38.618Z,53.50
2018-11-03T14:22:06.693Z,53.20
2018-11-03T14:24:34.790Z,54.70
2018-11-03T14:27:02.856Z,55.70
2018-11-03T14:29:30.950Z,55.80
2018-11-03T14:31:59.024Z,56.50
2018-11-03T14:34:28.177Z,57.20
2018-11-03T14:36:56.281Z,58.00
2018-11-03T14:39:24.374Z,58.50
2018-11-03T14:41:52.467Z,59.90
2018-11-03T14:44:20.569Z,60.50
2018-11-03T14:46:48.680Z,58.80
2018-11-03T14:49:16.729Z,58.90
2018-11-03T14:51:44.870Z,58.90
2018-11-03T14:54:12.975Z,61.10
2018-11-03T14:56:41.100Z,60.30
2018-11-03T14:59:09.182Z,60.40
2018-11-03T15:01:37.286Z,60.80
2018-11-03T15:04:05.542Z,60.30
2018-11-03T15:06:33.645Z,60.40
2018-11-03T15:09:01.719Z,61.30
2018-11-03T15:11:29.847Z,61.30
2018-11-03T15:13:58.045Z,62.00
2018-11-03T15:16:25.996Z,62.00
2018-11-03T15:18:54.086Z,62.20
2018-11-03T15:21:22.161Z,62.60
2018-11-03T15:23:50.214Z,63.30
2018-11-03T15:26:18.290Z,63.10
2018-11-03T15:28:46.359Z,64.00
2018-11-03T15:31:14.454Z,64.30
2018-11-03T15:33:42.565Z,64.40
2018-11-03T15:36:10.686Z,65.00
2018-11-03T15:38:38.742Z,65.30
2018-11-03T15:41:06.838Z,66.30
2018-11-03T15:43:34.931Z,66.90
2018-11-03T15:46:02.990Z,66.90
2018-11-03T15:48:31.072Z,67.20
2018-11-03T15:50:59.149Z,67.40
2018-11-03T15:53:27.228Z,67.90
2018-11-03T15:55:55.329Z,68.50
2018-11-03T15:58:23.409Z,68.70
2018-11-03T16:00:51.498Z,69.40
2018-11-03T16:03:19.558Z,70.30
2018-11-03T16:05:47.664Z,70.90
2018-11-03T16:08:15.733Z,71.60
2018-11-03T16:10:43.798Z,72.60
2018-11-03T16:13:11.906Z,73.30
2018-11-03T16:15:39.982Z,73.70
2018-11-03T16:18:08.045Z,74.10
2018-11-03T16:20:36.113Z,74.40
2018-11-03T16:23:05.282Z,74.50
2018-11-03T16:25:33.337Z,75.50
2018-11-03T16:28:01.404Z,76.70
2018-11-03T16:30:29.601Z,77.40
2018-11-03T16:32:57.698Z,77.80
2018-11-03T16:35:25.782Z,78.40
2018-11-03T16:37:53.823Z,78.60
2018-11-03T16:40:21.925Z,78.80
2018-11-03T16:42:49.994Z,79.20
2018-11-03T16:45:18.077Z,79.70
2018-11-03T16:47:46.195Z,80.30
2018-11-03T16:50:15.299Z,80.10
2018-11-03T16:52:43.505Z,80.60
2018-11-03T16:55:12.578Z,80.80
2018-11-03T16:57:40.702Z,80.90
2018-11-03T17:00:11.125Z,81.70
2018-11-03T17:02:39.630Z,82.60
2018-11-03T17:05:08.621Z,83.30
2018-11-03T17:07:36.696Z,83.90
2018-11-03T17:10:06.798Z,84.10
2018-11-03T17:12:34.978Z,84.40
2018-11-03T17:15:03.015Z,84.90
2018-11-03T17:17:31.174Z,85.00
2018-11-03T17:19:59.253Z,85.80
2018-11-03T17:22:27.356Z,86.50
2018-11-03T17:24:55.488Z,87.40
2018-11-03T17:27:23.534Z,87.50
2018-11-03T17:29:51.611Z,87.40
2018-11-03T17:32:19.731Z,87.00
2018-11-03T17:34:47.894Z,87.50
2018-11-03T17:37:15.992Z,88.80
2018-11-03T17:39:44.055Z,89.20
2018-11-03T17:42:12.129Z,89.80
2018-11-03T17:44:40.235Z,89.60
2018-11-03T17:47:08.449Z,90.20
2018-11-03T17:49:36.589Z,90.60
2018-11-03T17:52:04.720Z,90.50
2018-11-03T17:54:32.856Z,90.50
2018-11-03T17:57:01.092Z,90.60
2018-11-03T17:59:29.576Z,90.70
2018-11-03T18:01:57.774Z,90.70
2018-11-03T18:04:26.357Z,91.00
2018-11-03T18:06:54.434Z,91.00
2018-11-03T18:09:22.527Z,91.00
2018-11-03T18:11:50.642Z,91.20
2018-11-03T18:14:18.742Z,91.40
2018-11-03T18:16:46.841Z,91.50
2018-11-03T18:19:14.914Z,91.70
2018-11-03T18:21:43.018Z,91.50
2018-11-03T18:24:11.086Z,91.20
2018-11-03T18:26:39.235Z,91.10
2018-11-03T18:29:07.273Z,91.20
2018-11-03T18:31:35.349Z,91.40
2018-11-03T18:34:03.442Z,91.50
2018-11-03T18:36:31.639Z,91.40
2018-11-03T18:38:59.708Z,91.70
2018-11-03T18:41:27.818Z,92.00
2018-11-03T18:43:55.875Z,92.10
2018-11-03T18:46:24.144Z,92.30
2018-11-03T18:48:52.147Z,92.50
2018-11-03T18:51:20.229Z,92.80
2018-11-03T18:53:48.303Z,92.80
2018-11-03T18:56:16.394Z,92.90
2018-11-03T18:58:45.585Z,93.10
2018-11-03T19:01:13.705Z,93.60
2018-11-03T19:03:41.892Z,93.90
2018-11-03T19:06:09.975Z,94.00
2018-11-03T19:08:38.075Z,94.50
2018-11-03T19:11:06.780Z,94.50
2018-11-03T19:13:34.856Z,94.30
2018-11-03T19:16:02.934Z,94.10
2018-11-03T19:18:31.019Z,94.30
2018-11-03T19:20:59.094Z,94.30
2018-11-03T19:23:27.186Z,94.20
2018-11-03T19:25:55.255Z,94.30
2018-11-03T19:28:23.478Z,94.40
2018-11-03T19:30:51.557Z,94.40
2018-11-03T19:33:19.622Z,94.40
2018-11-03T19:35:47.786Z,94.40
2018-11-03T19:38:15.895Z,94.30
2018-11-03T19:40:44.076Z,94.40
2018-11-03T19:43:12.134Z,94.20
2018-11-03T19:45:40.219Z,94.40
2018-11-03T19:48:08.361Z,94.40
2018-11-03T19:50:36.403Z,94.60
2018-11-03T19:53:04.498Z,94.50
2018-11-03T19:55:32.629Z,94.60
2018-11-03T19:58:00.695Z,94.60
2018-11-03T20:00:28.795Z,94.70
2018-11-03T20:02:56.908Z,94.80
2018-11-03T20:05:24.971Z,94.60
2018-11-03T20:07:53.039Z,94.60
2018-11-03T20:10:21.130Z,94.50
2018-11-03T20:12:49.254Z,94.30
2018-11-03T20:15:17.371Z,94.50
2018-11-03T20:17:45.602Z,94.60
2018-11-03T20:20:14.427Z,94.50
2018-11-03T20:22:42.622Z,94.40
2018-11-03T20:25:11.744Z,94.40
2018-11-03T20:27:39.839Z,94.60
2018-11-03T20:30:10.614Z,94.50
2018-11-03T20:32:38.731Z,94.50
2018-11-03T20:35:07.122Z,94.40
2018-11-03T20:37:35.272Z,94.40
2018-11-03T20:40:03.567Z,94.40
2018-11-03T20:42:31.657Z,94.50
2018-11-03T20:44:59.794Z,94.30
2018-11-03T20:47:27.894Z,94.40
2018-11-03T20:49:56.009Z,94.40
2018-11-03T20:52:25.138Z,94.40
2018-11-03T20:54:53.271Z,94.50
2018-11-03T20:57:21.381Z,94.60
2018-11-03T20:59:52.685Z,94.70
2018-11-03T21:02:21.500Z,94.80
2018-11-03T21:04:49.582Z,94.90
2018-11-03T21:07:17.702Z,94.80
2018-11-03T21:09:45.788Z,94.70
2018-11-03T21:12:13.916Z,94.70
2018-11-03T21:14:41.976Z,94.80
2018-11-03T21:17:10.078Z,94.80
2018-11-03T21:19:38.183Z,95.00
2018-11-03T21:22:08.449Z,95.00
2018-11-03T21:24:36.945Z,95.00
2018-11-03T21:27:05.938Z,95.30
2018-11-03T21:29:34.036Z,94.80
2018-11-03T21:32:02.205Z,94.90
2018-11-03T21:34:30.224Z,95.00
2018-11-03T21:36:58.306Z,95.20
2018-11-03T21:39:26.356Z,95.00
2018-11-03T21:41:54.667Z,95.10
2018-11-03T21:44:22.877Z,95.10
2018-11-03T21:46:51.218Z,95.10
2018-11-03T21:49:19.205Z,95.20
2018-11-03T21:51:47.997Z,95.30
2018-11-03T21:54:16.052Z,95.30
2018-11-03T21:56:44.152Z,95.20
2018-11-03T21:59:12.242Z,95.30
2018-11-03T22:01:40.480Z,95.30
2018-11-03T22:04:08.578Z,95.30
2018-11-03T22:06:36.633Z,95.40
2018-11-03T22:09:07.505Z,95.20
2018-11-03T22:11:35.970Z,95.10
2018-11-03T22:14:04.078Z,95.10
2018-11-03T22:16:32.130Z,95.20
2018-11-03T22:19:00.211Z,95.20
2018-11-03T22:21:28.867Z,95.30
2018-11-03T22:23:56.964Z,95.20
2018-11-03T22:26:25.033Z,95.00
2018-11-03T22:28:53.113Z,95.10
2018-11-03T22:31:21.183Z,95.30
2018-11-03T22:33:49.303Z,95.30
2018-11-03T22:36:17.378Z,95.30
2018-11-03T22:38:45.453Z,95.40
2018-11-03T22:41:13.506Z,95.70
2018-11-03T22:43:41.629Z,95.40
2018-11-03T22:46:09.690Z,95.40
2018-11-03T22:48:37.746Z,95.60
2018-11-03T22:51:05.846Z,95.60
2018-11-03T22:53:33.997Z,95.80
2018-11-03T22:56:02.069Z,95.70
2018-11-03T22:58:30.122Z,95.70
2018-11-03T23:00:58.309Z,95.70
2018-11-03T23:03:27.106Z,95.80
2018-11-03T23:05:55.318Z,95.90
2018-11-03T23:08:23.414Z,95.90
2018-11-03T23:10:51.525Z,95.70
2018-11-03T23:13:19.610Z,95.90
2018-11-03T23:15:47.652Z,96.00
2018-11-03T23:18:15.711Z,96.00
2018-11-03T23:20:43.778Z,96.00
2018-11-03T23:23:11.858Z,96.10
2018-11-03T23:25:39.948Z,96.10
2018-11-03T23:28:08.034Z,96.10
2018-11-03T23:30:36.097Z,96.10
2018-11-03T23:33:04.150Z,96.00
2018-11-03T23:35:32.214Z,96.10
2018-11-03T23:38:00.277Z,95.80
2018-11-03T23:40:28.347Z,95.90
2018-11-03T23:42:56.397Z,96.00
2018-11-03T23:45:24.453Z,96.10
2018-11-03T23:47:52.510Z,96.10
2018-11-03T23:50:20.603Z,96.10
2018-11-03T23:52:48.698Z,96.10
2018-11-03T23:55:16.837Z,95.90
2018-11-03T23:57:44.853Z,95.80
